createdAt,value
2017-07-03T00:00:04.271Z,99.90
2017-07-03T00:02:32.022Z,99.90
2017-07-03T00:04:59.747Z,99.90
2017-07-03T00:07:27.527Z,99.90
2017-07-03T00:09:55.275Z,99.90
2017-07-03T00:12:23.003Z,99.90
2017-07-03T00:14:50.759Z,99.90
2017-07-03T00:17:19.250Z,99.90
2017-07-03T00:19:47.032Z,99.90
2017-07-03T00:22:14.766Z,99.90
2017-07-03T00:24:42.492Z,99.90
2017-07-03T00:27:10.243Z,99.90
2017-07-03T00:29:37.967Z,99.90
2017-07-03T00:32:05.762Z,99.90
2017-07-03T00:34:33.488Z,99.90
2017-07-03T00:37:01.212Z,99.90
2017-07-03T00:39:29.734Z,99.90
2017-07-03T00:41:57.460Z,99.90
2017-07-03T00:44:26.009Z,99.90
2017-07-03T00:46:53.745Z,99.90
2017-07-03T00:49:21.472Z,99.90
2017-07-03T00:51:49.234Z,99.90
2017-07-03T00:54:16.959Z,99.90
2017-07-03T00:56:44.747Z,99.90
2017-07-03T00:59:13.247Z,99.90
2017-07-03T01:01:40.971Z,99.90
2017-07-03T01:04:08.732Z,99.90
2017-07-03T01:06:36.462Z,99.90
2017-07-03T01:09:04.275Z,99.90
2017-07-03T01:11:32.758Z,99.90
2017-07-03T01:14:00.488Z,99.90
2017-07-03T01:16:28.256Z,99.90
2017-07-03T01:18:56.014Z,99.90
2017-07-03T01:21:23.796Z,99.90
2017-07-03T01:23:52.292Z,99.90
2017-07-03T01:26:20.014Z,99.90
2017-07-03T01:28:47.762Z,99.90
2017-07-03T01:31:15.488Z,99.90
2017-07-03T01:33:43.280Z,99.90
2017-07-03T01:36:11.010Z,99.90
2017-07-03T01:38:38.736Z,99.90
2017-07-03T01:41:07.267Z,99.90
2017-07-03T01:43:34.995Z,99.90
2017-07-03T01:46:02.782Z,99.90
2017-07-03T01:48:30.507Z,99.90
2017-07-03T01:50:59.026Z,99.90
2017-07-03T01:53:26.785Z,99.90
2017-07-03T01:55:54.516Z,99.90
2017-07-03T01:58:22.308Z,99.90
2017-07-03T02:00:50.035Z,99.90
2017-07-03T02:03:17.767Z,99.90
2017-07-03T02:05:45.518Z,99.90
2017-07-03T02:08:13.241Z,99.90
2017-07-03T02:10:41.029Z,99.90
2017-07-03T02:13:08.763Z,99.90
2017-07-03T02:15:37.350Z,99.90
2017-07-03T02:18:05.104Z,99.90
2017-07-03T02:20:32.844Z,99.90
2017-07-03T02:23:00.631Z,99.90
2017-07-03T02:25:28.356Z,99.90
2017-07-03T02:27:56.847Z,99.90
2017-07-03T02:30:24.599Z,99.90
2017-07-03T02:32:53.095Z,99.90
2017-07-03T02:35:20.892Z,99.90
2017-07-03T02:37:48.607Z,99.90
2017-07-03T02:40:16.341Z,99.90
2017-07-03T02:42:44.102Z,99.90
2017-07-03T02:45:11.869Z,99.90
2017-07-03T02:47:40.421Z,99.90
2017-07-03T02:50:08.139Z,99.90
2017-07-03T02:52:35.862Z,99.90
2017-07-03T02:55:03.610Z,99.90
2017-07-03T02:57:31.347Z,99.90
2017-07-03T02:59:59.132Z,99.90
2017-07-03T03:02:26.865Z,99.90
2017-07-03T03:04:54.591Z,99.90
2017-07-03T03:07:23.112Z,99.90
2017-07-03T03:09:50.844Z,99.90
2017-07-03T03:12:18.639Z,99.90
2017-07-03T03:14:46.391Z,99.90
2017-07-03T03:17:14.114Z,99.90
2017-07-03T03:19:41.867Z,99.90
2017-07-03T03:22:10.364Z,99.90
2017-07-03T03:24:38.156Z,99.90
2017-07-03T03:27:05.876Z,99.90
2017-07-03T03:29:34.424Z,99.90
2017-07-03T03:32:02.181Z,99.90
2017-07-03T03:34:29.917Z,99.90
2017-07-03T03:36:57.700Z,99.90
2017-07-03T03:39:25.431Z,99.50
2017-07-03T03:41:53.152Z,99.40
2017-07-03T03:44:21.671Z,99.90
2017-07-03T03:46:49.394Z,99.90
2017-07-03T03:49:17.943Z,99.90
2017-07-03T03:51:45.673Z,99.90
2017-07-03T03:54:13.392Z,95.20
2017-07-03T03:56:41.932Z,82.30
2017-07-03T03:59:09.665Z,82.20
2017-07-03T04:01:37.443Z,74.40
2017-07-03T04:04:05.169Z,68.40
2017-07-03T04:06:32.900Z,64.00
2017-07-03T04:09:00.663Z,64.30
2017-07-03T04:11:28.387Z,65.90
2017-07-03T04:13:56.176Z,73.40
2017-07-03T04:16:23.903Z,83.70
2017-07-03T04:18:51.626Z,90.60
2017-07-03T04:21:20.151Z,94.20
2017-07-03T04:23:47.893Z,94.20
2017-07-03T04:26:15.683Z,95.40
2017-07-03T04:28:43.413Z,95.80
2017-07-03T04:31:11.143Z,95.50
2017-07-03T04:33:39.668Z,88.80
2017-07-03T04:36:07.386Z,88.90
2017-07-03T04:38:35.200Z,80.60
2017-07-03T04:41:02.962Z,70.80
2017-07-03T04:43:30.692Z,69.10
2017-07-03T04:45:58.443Z,71.70
2017-07-03T04:48:26.171Z,78.20
2017-07-03T04:50:53.958Z,75.20
2017-07-03T04:53:22.450Z,77.80
2017-07-03T04:55:50.178Z,77.70
2017-07-03T04:58:17.927Z,73.50
2017-07-03T05:00:45.656Z,73.50
2017-07-03T05:03:13.445Z,70.80
2017-07-03T05:05:41.176Z,72.00
2017-07-03T05:08:08.905Z,71.00
2017-07-03T05:10:36.658Z,70.60
2017-07-03T05:13:05.152Z,68.30
2017-07-03T05:15:32.939Z,68.30
2017-07-03T05:18:00.662Z,68.30
2017-07-03T05:20:29.150Z,62.80
2017-07-03T05:22:56.906Z,62.80
2017-07-03T05:25:25.398Z,46.90
2017-07-03T05:27:53.181Z,46.80
2017-07-03T05:30:20.911Z,41.70
2017-07-03T05:32:48.631Z,40.10
2017-07-03T05:35:16.385Z,37.70
2017-07-03T05:37:44.121Z,35.70
2017-07-03T05:40:11.904Z,35.50
2017-07-03T05:42:45.224Z,35.90
2017-07-03T05:45:13.784Z,31.50
2017-07-03T05:47:41.517Z,31.40
2017-07-03T05:50:09.242Z,31.10
2017-07-03T05:52:37.760Z,27.60
2017-07-03T05:55:05.494Z,27.50
2017-07-03T05:57:33.303Z,29.00
2017-07-03T06:00:01.045Z,34.10
2017-07-03T06:02:28.768Z,36.80
2017-07-03T06:04:57.288Z,37.30
2017-07-03T06:07:25.019Z,37.20
2017-07-03T06:09:52.794Z,37.00
2017-07-03T06:12:20.519Z,34.20
2017-07-03T06:14:49.011Z,38.40
2017-07-03T06:17:16.769Z,38.30
2017-07-03T06:19:44.499Z,42.10
2017-07-03T06:22:12.284Z,44.70
2017-07-03T06:24:40.016Z,46.60
2017-07-03T06:27:07.742Z,36.90
2017-07-03T06:29:35.502Z,29.80
2017-07-03T06:32:03.256Z,28.10
2017-07-03T06:34:31.070Z,25.00
2017-07-03T06:36:58.799Z,22.90
2017-07-03T06:39:26.521Z,22.70
2017-07-03T06:41:54.280Z,21.90
2017-07-03T06:44:22.017Z,21.80
2017-07-03T06:46:49.806Z,22.00
2017-07-03T06:49:17.527Z,24.40
2017-07-03T06:51:45.265Z,27.50
2017-07-03T06:54:13.023Z,29.70
2017-07-03T06:56:40.750Z,32.80
2017-07-03T06:59:08.536Z,35.00
2017-07-03T07:01:36.263Z,35.10
2017-07-03T07:04:03.996Z,33.20
2017-07-03T07:06:31.761Z,29.80
2017-07-03T07:08:59.496Z,26.40
2017-07-03T07:11:27.281Z,24.20
2017-07-03T07:13:55.011Z,21.70
2017-07-03T07:16:22.740Z,20.10
2017-07-03T07:18:50.495Z,18.70
2017-07-03T07:21:18.237Z,19.20
2017-07-03T07:23:46.022Z,19.40
2017-07-03T07:26:13.750Z,19.80
2017-07-03T07:28:41.510Z,18.60
2017-07-03T07:31:09.263Z,16.80
2017-07-03T07:33:36.987Z,16.90
2017-07-03T07:36:04.783Z,18.70
2017-07-03T07:38:32.508Z,17.50
2017-07-03T07:41:00.232Z,16.90
2017-07-03T07:43:27.994Z,17.50
2017-07-03T07:45:56.486Z,17.00
2017-07-03T07:48:24.276Z,17.50
2017-07-03T07:50:52.005Z,17.70
2017-07-03T07:53:19.732Z,16.30
2017-07-03T07:55:47.483Z,16.50
2017-07-03T07:58:15.211Z,16.20
2017-07-03T08:00:43.004Z,15.30
2017-07-03T08:03:10.732Z,18.00
2017-07-03T08:05:38.452Z,16.60
2017-07-03T08:08:06.988Z,17.30
2017-07-03T08:10:34.711Z,17.60
2017-07-03T08:13:02.500Z,17.60
2017-07-03T08:15:30.229Z,18.80
2017-07-03T08:17:57.954Z,19.80
2017-07-03T08:20:25.711Z,23.30
2017-07-03T08:22:53.445Z,24.20
2017-07-03T08:25:21.234Z,22.50
2017-07-03T08:27:48.963Z,19.30
2017-07-03T08:30:16.688Z,18.10
2017-07-03T08:32:45.204Z,16.30
2017-07-03T08:35:12.932Z,16.30
2017-07-03T08:37:41.483Z,15.40
2017-07-03T08:40:09.201Z,15.40
2017-07-03T08:42:36.923Z,15.70
2017-07-03T08:45:05.446Z,21.00
2017-07-03T08:47:33.170Z,20.80
2017-07-03T08:50:00.959Z,23.60
2017-07-03T08:52:28.685Z,21.30
2017-07-03T08:54:57.179Z,17.90
2017-07-03T08:57:24.958Z,17.90
2017-07-03T08:59:52.692Z,16.10
2017-07-03T09:02:20.487Z,17.50
2017-07-03T09:04:48.224Z,16.60
2017-07-03T09:07:15.958Z,16.40
2017-07-03T09:09:43.724Z,18.60
2017-07-03T09:12:12.215Z,22.00
2017-07-03T09:14:40.021Z,21.90
2017-07-03T09:17:07.752Z,21.60
2017-07-03T09:19:35.475Z,20.60
2017-07-03T09:22:03.225Z,18.20
2017-07-03T09:24:30.951Z,17.90
2017-07-03T09:26:58.731Z,18.20
2017-07-03T09:29:26.458Z,19.60
2017-07-03T09:31:54.182Z,23.70
2017-07-03T09:34:21.942Z,21.40
2017-07-03T09:36:49.676Z,19.30
2017-07-03T09:39:17.459Z,20.10
2017-07-03T09:41:45.200Z,22.60
2017-07-03T09:44:12.935Z,25.20
2017-07-03T09:46:40.713Z,25.30
2017-07-03T09:49:08.460Z,25.40
2017-07-03T09:51:36.255Z,26.40
2017-07-03T09:54:03.988Z,28.70
2017-07-03T09:56:31.783Z,28.00
2017-07-03T09:58:59.540Z,28.00
2017-07-03T10:01:27.267Z,28.10
2017-07-03T10:03:55.049Z,28.50
2017-07-03T10:06:22.775Z,28.70
2017-07-03T10:08:50.503Z,28.80
2017-07-03T10:11:18.257Z,29.60
2017-07-03T10:13:45.984Z,27.10
2017-07-03T10:16:13.767Z,25.80
2017-07-03T10:18:41.492Z,25.70
2017-07-03T10:21:09.222Z,27.60
2017-07-03T10:23:37.749Z,26.90
2017-07-03T10:26:05.472Z,26.80
2017-07-03T10:28:33.255Z,27.20
2017-07-03T10:31:00.979Z,26.00
2017-07-03T10:33:29.462Z,25.00
2017-07-03T10:35:57.982Z,26.90
2017-07-03T10:38:25.709Z,26.80
2017-07-03T10:40:54.255Z,27.20
2017-07-03T10:43:21.981Z,27.30
2017-07-03T10:45:49.703Z,26.00
2017-07-03T10:48:22.622Z,24.80
2017-07-03T10:50:50.386Z,24.70
2017-07-03T10:53:18.585Z,25.90
2017-07-03T10:55:46.340Z,26.60
2017-07-03T10:58:14.412Z,27.20
2017-07-03T11:00:44.423Z,27.70
2017-07-03T11:13:24.121Z,26.70
2017-07-03T11:15:57.246Z,27.20
2017-07-03T11:18:25.076Z,25.90
2017-07-03T11:20:52.820Z,27.90
2017-07-03T11:23:20.614Z,26.50
2017-07-03T11:25:48.357Z,26.90
2017-07-03T11:28:16.156Z,27.10
2017-07-03T11:30:44.987Z,26.40
2017-07-03T11:33:12.724Z,28.10
2017-07-03T11:35:41.494Z,28.40
2017-07-03T11:38:10.321Z,27.30
2017-07-03T11:40:39.184Z,28.50
2017-07-03T11:43:06.955Z,28.90
2017-07-03T11:45:34.740Z,28.90
2017-07-03T11:48:02.923Z,28.40
2017-07-03T11:50:30.663Z,29.50
2017-07-03T11:52:58.467Z,26.80
2017-07-03T11:55:26.987Z,27.10
2017-07-03T11:57:54.731Z,27.10
2017-07-03T12:00:22.523Z,26.30
2017-07-03T12:02:50.272Z,27.50
2017-07-03T12:05:18.100Z,28.70
2017-07-03T12:07:45.836Z,29.50
2017-07-03T12:10:13.574Z,28.30
2017-07-03T12:12:41.351Z,27.50
2017-07-03T12:15:09.093Z,26.50
2017-07-03T12:17:36.899Z,26.20
2017-07-03T12:20:04.700Z,26.90
2017-07-03T12:22:32.435Z,26.50
2017-07-03T12:25:00.963Z,27.40
2017-07-03T12:27:28.687Z,27.40
2017-07-03T12:29:56.481Z,27.30
2017-07-03T12:32:24.220Z,27.90
2017-07-03T12:34:51.957Z,27.00
2017-07-03T12:37:20.491Z,28.40
2017-07-03T12:39:49.305Z,28.30
2017-07-03T12:42:17.118Z,26.60
2017-07-03T12:44:44.861Z,27.00
2017-07-03T12:47:12.607Z,27.30
2017-07-03T12:49:40.406Z,26.80
2017-07-03T12:52:08.131Z,26.60
2017-07-03T12:54:35.885Z,27.50
2017-07-03T12:57:04.447Z,26.10
2017-07-03T12:59:32.185Z,26.10
2017-07-03T13:01:59.927Z,25.20
2017-07-03T13:04:27.731Z,25.90
2017-07-03T13:06:55.461Z,26.20
2017-07-03T13:09:23.189Z,26.70
2017-07-03T13:11:50.964Z,26.70
2017-07-03T13:14:18.700Z,26.20
2017-07-03T13:16:47.218Z,26.40
2017-07-03T13:19:14.985Z,26.40
2017-07-03T13:21:42.717Z,25.60
2017-07-03T13:24:10.462Z,26.60
2017-07-03T13:26:38.997Z,27.10
2017-07-03T13:29:06.748Z,27.10
2017-07-03T13:31:34.497Z,26.90
2017-07-03T13:34:02.285Z,27.80
2017-07-03T13:36:30.022Z,27.60
2017-07-03T13:38:57.778Z,27.90
2017-07-03T13:41:25.548Z,27.60
2017-07-03T13:43:53.292Z,27.90
2017-07-03T13:46:21.035Z,27.30
2017-07-03T13:48:49.573Z,26.70
2017-07-03T13:51:17.304Z,26.60
2017-07-03T13:53:45.035Z,28.20
2017-07-03T13:56:13.568Z,28.00
2017-07-03T13:58:41.308Z,27.90
2017-07-03T14:01:09.045Z,26.90
2017-07-03T14:03:36.816Z,28.00
2017-07-03T14:06:04.561Z,28.10
2017-07-03T14:08:32.304Z,28.30
2017-07-03T14:11:00.841Z,28.30
2017-07-03T14:13:28.591Z,28.30
2017-07-03T14:15:56.344Z,28.60
2017-07-03T14:18:24.130Z,28.50
2017-07-03T14:20:51.902Z,27.70
2017-07-03T14:23:19.706Z,28.00
2017-07-03T14:25:47.485Z,27.70
2017-07-03T14:28:15.221Z,28.00
2017-07-03T14:30:43.779Z,28.30
2017-07-03T14:33:11.546Z,28.40
2017-07-03T14:35:39.295Z,26.50
2017-07-03T14:38:07.068Z,26.40
2017-07-03T14:40:34.818Z,26.60
2017-07-03T14:43:02.612Z,26.10
2017-07-03T14:45:31.120Z,26.40
2017-07-03T14:47:58.860Z,26.40
2017-07-03T14:50:26.632Z,26.50
2017-07-03T14:52:54.373Z,26.50
2017-07-03T14:55:22.943Z,26.40
2017-07-03T14:57:51.439Z,25.80
2017-07-03T15:00:19.935Z,25.10
2017-07-03T15:02:47.703Z,25.20
2017-07-03T15:05:15.434Z,26.70
2017-07-03T15:07:43.998Z,25.90
2017-07-03T15:10:11.748Z,25.90
2017-07-03T15:12:39.484Z,26.20
2017-07-03T15:15:07.257Z,26.40
2017-07-03T15:17:35.010Z,26.50
2017-07-03T15:20:02.810Z,26.80
2017-07-03T15:22:30.606Z,27.10
2017-07-03T15:24:58.339Z,27.10
2017-07-03T15:27:26.875Z,26.50
2017-07-03T15:29:54.615Z,26.50
2017-07-03T15:32:22.412Z,26.40
2017-07-03T15:34:50.209Z,27.00
2017-07-03T15:37:18.732Z,27.60
2017-07-03T15:39:46.517Z,27.60
2017-07-03T15:42:14.257Z,27.20
2017-07-03T15:44:42.047Z,27.20
2017-07-03T15:47:09.791Z,28.30
2017-07-03T15:49:37.544Z,27.30
2017-07-03T15:52:05.323Z,28.70
2017-07-03T15:54:33.066Z,27.40
2017-07-03T15:57:00.865Z,28.40
2017-07-03T15:59:28.607Z,28.00
2017-07-03T16:01:56.353Z,28.70
2017-07-03T16:04:24.139Z,28.50
2017-07-03T16:06:51.907Z,28.10
2017-07-03T16:09:19.675Z,28.70
2017-07-03T16:11:47.409Z,28.10
2017-07-03T16:14:15.213Z,28.40
2017-07-03T16:16:42.976Z,28.20
2017-07-03T16:19:10.720Z,28.90
2017-07-03T16:21:39.256Z,29.80
2017-07-03T16:24:06.985Z,29.90
2017-07-03T16:26:34.784Z,29.90
2017-07-03T16:29:02.517Z,30.10
2017-07-03T16:31:30.252Z,29.60
2017-07-03T16:33:58.796Z,30.00
2017-07-03T16:36:26.544Z,29.90
2017-07-03T16:38:54.375Z,30.60
2017-07-03T16:41:22.121Z,30.10
2017-07-03T16:43:49.877Z,30.10
2017-07-03T16:46:17.664Z,29.80
2017-07-03T16:48:45.419Z,30.80
2017-07-03T16:51:13.220Z,30.70
2017-07-03T16:53:50.817Z,31.50
2017-07-03T16:56:18.606Z,31.40
2017-07-03T16:58:47.117Z,30.90
2017-07-03T17:01:14.868Z,31.30
2017-07-03T17:03:42.644Z,31.80
2017-07-03T17:06:10.401Z,31.70
2017-07-03T17:08:38.206Z,32.20
2017-07-03T17:11:05.936Z,32.90
2017-07-03T17:13:33.707Z,33.80
2017-07-03T17:16:01.511Z,33.30
2017-07-03T17:18:29.245Z,33.30
2017-07-03T17:20:57.043Z,32.60
2017-07-03T17:23:25.580Z,32.90
2017-07-03T17:25:53.324Z,32.80
2017-07-03T17:28:21.096Z,33.20
2017-07-03T17:30:48.828Z,33.60
2017-07-03T17:33:16.617Z,32.90
2017-07-03T17:35:44.349Z,33.90
2017-07-03T17:38:12.084Z,33.50
2017-07-03T17:40:40.629Z,33.80
2017-07-03T17:43:08.380Z,33.80
2017-07-03T17:45:36.175Z,34.50
2017-07-03T17:48:03.925Z,35.70
2017-07-03T17:50:31.659Z,35.20
2017-07-03T17:52:59.440Z,36.10
2017-07-03T17:55:27.184Z,36.40
2017-07-03T17:57:54.985Z,36.60
2017-07-03T18:00:22.735Z,36.10
2017-07-03T18:02:50.493Z,35.60
2017-07-03T18:05:18.268Z,35.40
2017-07-03T18:07:46.023Z,35.50
2017-07-03T18:10:13.832Z,35.20
2017-07-03T18:12:41.573Z,35.30
2017-07-03T18:15:09.309Z,35.70
2017-07-03T18:17:37.085Z,36.20
2017-07-03T18:20:05.599Z,38.00
2017-07-03T18:22:33.390Z,37.50
2017-07-03T18:25:01.135Z,37.80
2017-07-03T18:27:28.864Z,38.20
2017-07-03T18:29:57.397Z,39.60
2017-07-03T18:32:25.148Z,39.60
2017-07-03T18:34:52.945Z,39.50
2017-07-03T18:37:20.682Z,40.00
2017-07-03T18:39:48.423Z,41.20
2017-07-03T18:42:16.189Z,41.40
2017-07-03T18:44:43.958Z,42.10
2017-07-03T18:47:11.770Z,42.90
2017-07-03T18:49:40.294Z,44.50
2017-07-03T18:52:08.028Z,44.50
2017-07-03T18:54:35.809Z,45.20
2017-07-03T18:57:03.546Z,45.30
2017-07-03T18:59:31.360Z,46.10
2017-07-03T19:01:59.101Z,46.60
2017-07-03T19:04:26.891Z,47.10
2017-07-03T19:06:54.666Z,47.40
2017-07-03T19:09:23.197Z,48.10
2017-07-03T19:11:51.026Z,47.80
2017-07-03T19:14:18.775Z,48.20
2017-07-03T19:16:47.292Z,51.50
2017-07-03T19:19:15.071Z,51.40
2017-07-03T19:21:42.821Z,51.70
2017-07-03T19:24:11.451Z,53.30
2017-07-03T19:26:39.976Z,56.30
2017-07-03T19:29:07.731Z,56.30
2017-07-03T19:31:35.505Z,57.00
2017-07-03T19:34:04.054Z,58.30
2017-07-03T19:36:32.364Z,59.30
2017-07-03T19:39:00.126Z,59.50
2017-07-03T19:41:27.889Z,60.40
2017-07-03T19:43:55.684Z,60.70
2017-07-03T19:46:25.348Z,60.50
2017-07-03T19:48:53.161Z,60.80
2017-07-03T19:51:22.525Z,62.40
2017-07-03T19:53:50.284Z,62.40
2017-07-03T19:56:18.499Z,63.10
2017-07-03T19:58:46.323Z,64.90
2017-07-03T20:01:19.575Z,64.20
2017-07-03T20:03:47.448Z,64.70
2017-07-03T20:06:15.334Z,65.00
2017-07-03T20:08:43.329Z,66.50
2017-07-03T20:11:12.753Z,67.10
2017-07-03T20:13:42.036Z,66.40
2017-07-03T20:16:11.936Z,67.60
2017-07-03T20:18:39.803Z,67.60
2017-07-03T20:21:09.881Z,70.10
2017-07-03T20:23:37.705Z,75.30
2017-07-03T20:26:06.482Z,76.50
2017-07-03T20:28:35.025Z,78.50
2017-07-03T20:31:02.993Z,78.40
2017-07-03T20:33:32.673Z,78.90
2017-07-03T20:36:01.214Z,79.50
2017-07-03T20:38:29.882Z,79.70
2017-07-03T20:40:59.787Z,80.00
2017-07-03T20:43:29.069Z,80.40
2017-07-03T20:46:02.789Z,80.40
2017-07-03T20:48:31.881Z,80.70
2017-07-03T20:51:03.768Z,80.50
2017-07-03T20:53:31.855Z,80.30
2017-07-03T20:56:00.874Z,80.80
2017-07-03T20:58:30.217Z,80.20
2017-07-03T21:01:02.280Z,79.40
2017-07-03T21:03:32.740Z,79.40
2017-07-03T21:08:33.369Z,78.20
2017-07-03T21:11:02.208Z,77.90
2017-07-03T21:13:30.824Z,79.20
2017-07-03T21:16:01.615Z,79.20
2017-07-03T21:18:31.241Z,79.30
2017-07-03T21:21:02.371Z,79.50
2017-07-03T21:23:31.511Z,79.50
2017-07-03T21:26:04.907Z,80.90
2017-07-03T21:28:35.937Z,80.90
2017-07-03T21:31:07.753Z,79.70
2017-07-03T21:33:37.249Z,80.50
2017-07-03T21:36:06.615Z,80.20
2017-07-03T21:38:36.355Z,80.40
2017-07-03T21:41:05.452Z,80.50
2017-07-03T21:43:36.080Z,80.60
2017-07-03T21:46:04.848Z,79.30
2017-07-03T21:48:33.258Z,79.70
2017-07-03T21:51:02.441Z,79.20
2017-07-03T21:53:30.290Z,79.10
2017-07-03T21:55:58.980Z,79.30
2017-07-03T21:58:28.115Z,79.80
2017-07-03T22:01:01.225Z,79.10
2017-07-03T22:03:32.751Z,79.80
2017-07-03T22:06:00.881Z,79.10
2017-07-03T22:08:33.517Z,79.50
2017-07-03T22:11:03.587Z,79.50
2017-07-03T22:13:42.596Z,79.00
2017-07-03T22:16:18.246Z,79.40
2017-07-03T22:18:48.030Z,79.40
2017-07-03T22:23:55.563Z,80.90
2017-07-03T22:26:28.481Z,79.80
2017-07-03T22:28:59.576Z,80.30
2017-07-03T22:31:32.555Z,81.10
2017-07-03T22:34:06.111Z,81.10
2017-07-03T22:36:38.349Z,80.60
2017-07-03T22:39:10.389Z,81.20
2017-07-03T22:49:32.813Z,81.90
2017-07-03T22:52:02.954Z,82.60
2017-07-03T22:54:49.077Z,82.30
2017-07-03T22:57:24.598Z,81.80
2017-07-03T22:59:56.225Z,82.30
2017-07-03T23:02:27.284Z,82.70
2017-07-03T23:04:56.245Z,82.20
2017-07-03T23:07:35.024Z,82.40
2017-07-03T23:10:07.903Z,83.80
2017-07-03T23:12:40.136Z,83.60
2017-07-03T23:15:12.434Z,83.10
2017-07-03T23:17:46.218Z,83.20
2017-07-03T23:20:18.602Z,83.00
2017-07-03T23:22:48.285Z,85.20
2017-07-03T23:25:16.582Z,85.20
2017-07-03T23:27:45.245Z,83.80
2017-07-03T23:30:13.011Z,83.10
2017-07-03T23:32:40.798Z,82.70
2017-07-03T23:35:09.519Z,83.00
2017-07-03T23:37:38.037Z,83.20
2017-07-03T23:40:05.785Z,82.60
2017-07-03T23:42:34.499Z,82.90
2017-07-03T23:45:02.291Z,82.10
2017-07-03T23:47:30.430Z,82.20
2017-07-03T23:49:58.263Z,82.30
2017-07-03T23:52:26.088Z,82.80
2017-07-03T23:54:53.847Z,83.30
2017-07-03T23:57:22.470Z,82.70
2017-07-03T23:59:50.234Z,82.70
